createdAt,value
2023-01-08T06:04:47.496Z,8.50
2023-01-08T06:09:49.431Z,8.40
2023-01-08T06:14:51.644Z,8.40
2023-01-08T06:19:53.563Z,8.30
2023-01-08T06:24:55.522Z,8.20
2023-01-08T06:29:57.350Z,8.20
2023-01-08T06:34:59.140Z,8.10
2023-01-08T06:40:01.122Z,8.00
2023-01-08T06:45:02.989Z,8.00
2023-01-08T06:50:06.305Z,7.90
2023-01-08T06:55:08.728Z,7.90
2023-01-08T07:00:11.353Z,7.90
2023-01-08T07:05:13.177Z,7.90
2023-01-08T07:10:15.099Z,7.80
2023-01-08T07:15:19.636Z,7.80
2023-01-08T07:20:24.891Z,7.70
2023-01-08T07:25:26.812Z,7.70
2023-01-08T07:30:34.016Z,7.70
2023-01-08T07:35:36.953Z,7.70
2023-01-08T07:40:39.601Z,7.60
2023-01-08T07:45:41.757Z,7.60
2023-01-08T07:50:44.028Z,7.60
2023-01-08T07:55:45.996Z,7.50
2023-01-08T08:00:47.907Z,7.50
2023-01-08T08:05:49.826Z,7.50
2023-01-08T08:10:51.996Z,7.40
2023-01-08T08:15:53.910Z,7.40
2023-01-08T08:20:55.927Z,7.40
2023-01-08T08:25:57.939Z,7.40
2023-01-08T08:31:00.067Z,7.40
2023-01-08T08:36:02.038Z,7.40
2023-01-08T08:41:04.055Z,7.50
2023-01-08T08:46:05.876Z,7.50
2023-01-08T08:51:07.738Z,7.60
2023-01-08T08:56:09.577Z,7.60
2023-01-08T09:01:12.112Z,7.60
2023-01-08T09:06:14.544Z,7.70
2023-01-08T09:11:16.494Z,7.70
2023-01-08T09:16:18.427Z,7.70
2023-01-08T09:21:20.374Z,7.70
2023-01-08T09:26:22.234Z,7.70
2023-01-08T09:31:24.405Z,7.70
2023-01-08T09:36:26.337Z,7.70
2023-01-08T09:41:31.608Z,7.70
2023-01-08T09:46:34.875Z,7.70
2023-01-08T09:51:38.241Z,7.70
2023-01-08T09:56:40.099Z,7.80
2023-01-08T10:01:47.124Z,7.80
2023-01-08T10:06:52.980Z,7.80
2023-01-08T10:12:00.523Z,7.80
2023-01-08T10:17:13.154Z,7.90
2023-01-08T10:22:28.068Z,7.90
2023-01-08T10:27:30.039Z,8.00
2023-01-08T10:32:34.742Z,8.10
2023-01-08T10:37:39.322Z,8.10
2023-01-08T10:42:45.842Z,8.20
2023-01-08T10:47:53.257Z,8.20
2023-01-08T10:52:57.665Z,8.30
2023-01-08T10:58:01.528Z,8.40
2023-01-08T11:03:06.271Z,8.50
2023-01-08T11:08:16.445Z,8.60
2023-01-08T11:13:19.693Z,8.60
2023-01-08T11:18:23.607Z,8.70
2023-01-08T11:23:27.731Z,8.80
2023-01-08T11:28:38.956Z,8.90
2023-01-08T11:33:42.580Z,8.90
2023-01-08T11:38:44.734Z,9.10
2023-01-08T11:44:11.836Z,9.10
2023-01-08T11:49:51.155Z,9.20
2023-01-08T11:55:02.248Z,9.30
2023-01-08T12:00:27.904Z,9.30
2023-01-08T12:05:52.749Z,9.40
2023-01-08T12:11:19.500Z,9.40
2023-01-08T12:17:07.628Z,9.50
2023-01-08T12:22:23.835Z,9.60
2023-01-08T12:27:56.237Z,9.70
2023-01-08T12:33:04.580Z,9.70
2023-01-08T12:38:13.517Z,9.80
2023-01-08T12:43:23.159Z,9.80
2023-01-08T12:48:28.477Z,9.80
2023-01-08T12:53:38.027Z,9.80
2023-01-08T12:58:45.871Z,9.80
2023-01-08T13:03:49.147Z,9.80
2023-01-08T13:08:52.846Z,9.80
2023-01-08T13:14:14.063Z,9.90
2023-01-08T13:19:27.492Z,9.90
2023-01-08T13:24:41.135Z,9.90
2023-01-08T13:29:44.995Z,9.90
2023-01-08T13:34:47.074Z,9.90
2023-01-08T13:39:49.392Z,10.00
2023-01-08T13:44:57.304Z,10.00
2023-01-08T13:50:02.459Z,10.00
2023-01-08T13:55:06.745Z,10.10
2023-01-08T14:00:14.701Z,10.10
2023-01-08T14:05:40.043Z,10.10
2023-01-08T14:10:42.258Z,10.10
2023-01-08T14:15:48.210Z,10.10
2023-01-08T14:20:51.176Z,10.10
2023-01-08T14:25:53.643Z,10.10
2023-01-08T14:30:57.328Z,10.10
2023-01-08T14:36:00.314Z,10.00
2023-01-08T14:41:08.042Z,10.00
2023-01-08T14:46:22.861Z,10.00
2023-01-08T14:51:27.277Z,9.90
2023-01-08T14:56:34.208Z,9.80
2023-01-08T15:01:36.974Z,9.90
2023-01-08T15:06:38.878Z,9.80
2023-01-08T15:11:52.140Z,9.80
2023-01-08T15:17:10.289Z,9.80
2023-01-08T15:22:27.361Z,9.70
2023-01-08T15:27:31.580Z,9.60
2023-01-08T15:32:37.062Z,9.60
2023-01-08T15:37:39.094Z,9.50
2023-01-08T15:42:59.771Z,9.50
2023-01-08T15:48:01.592Z,9.50
2023-01-08T15:53:05.238Z,9.40
2023-01-08T15:58:07.117Z,9.30
2023-01-08T16:03:09.677Z,9.30
2023-01-08T16:08:12.144Z,9.30
2023-01-08T16:13:14.477Z,9.20
2023-01-08T16:18:19.415Z,9.20
2023-01-08T23:56:49.289Z,6.90
